Algosea — CFN4229 — position and weather

sailwx.info

Track history (hours):
 
Tides and Currents Weather Stations Pressure Air Temp Water Temp Dewpoint Dewpoint Depression Visibility Wind Speed Wind Dir Waves Ship Positions

Algosea

Last reported at 2015-Mar-21 16:23 UTC. Time now 2015-Mar-29 04:22 UTC.
Position N 42°35' W 079°58'.

Length 144 m; draft 7.3 m.

Type: Ship (hazmat cat C). MMSI: 316006868.

Date/timePositionNaut miles runAvg speedWind from/ knotsBaromVisibWave heightAir tempDewpointWater temp
2015-Mar-21 16:23N 42°35' W 079°58'4 4.8
2015-Mar-21 15:33N 42°38' W 080°02'4 3.6
2015-Mar-21 14:33N 42°41' W 080°05'7 6.6
2015-Mar-21 13:34N 42°47' W 080°02'  
2015-Mar-18 19:06N 42°48' W 080°03'1 1.7
2015-Mar-18 18:33N 42°47' W 080°03'7 7.3
2015-Mar-18 17:33N 42°40' W 080°05'1 1.3
2015-Mar-18 16:33N 42°39' W 080°04'1 1.1
2015-Mar-18 15:33N 42°39' W 080°02'6 5.0
2015-Mar-18 14:27N 42°34' W 079°59'  
Track history (hours):
 
Tides and Currents Weather Stations Pressure Air Temp Water Temp Dewpoint Dewpoint Depression Visibility Wind Speed Wind Dir Waves Ship Positions

Algosea

Last reported at 2015-Mar-21 16:23 UTC. Time now 2015-Mar-29 04:22 UTC.
Position N 42°35' W 079°58'.

Length 144 m; draft 7.3 m.

Type: Ship (hazmat cat C). MMSI: 316006868.

Date/timePositionNaut miles runAvg speedWind from/ knotsBaromVisibWave heightAir tempDewpointWater temp
2015-Mar-21 16:23N 42°35' W 079°58'4 4.8
2015-Mar-21 15:33N 42°38' W 080°02'4 3.6
2015-Mar-21 14:33N 42°41' W 080°05'7 6.6
2015-Mar-21 13:34N 42°47' W 080°02'  
2015-Mar-18 19:06N 42°48' W 080°03'1 1.7
2015-Mar-18 18:33N 42°47' W 080°03'7 7.3
2015-Mar-18 17:33N 42°40' W 080°05'1 1.3
2015-Mar-18 16:33N 42°39' W 080°04'1 1.1
2015-Mar-18 15:33N 42°39' W 080°02'6 5.0
2015-Mar-18 14:27N 42°34' W 079°59'  

Dump ship's entire track history